sensor_id;sensor_type;location;lat;lon;timestamp;P1;durP1;ratioP1;P2;durP2;ratioP2
75993;SDS011;64680;53.800;9.988;2024-03-25T00:00:11;9.88;;;2.65;;
75993;SDS011;64680;53.800;9.988;2024-03-25T00:02:38;7.43;;;2.47;;
75993;SDS011;64680;53.800;9.988;2024-03-25T00:05:04;7.70;;;1.85;;
75993;SDS011;64680;53.800;9.988;2024-03-25T00:07:32;8.05;;;2.00;;
75993;SDS011;64680;53.800;9.988;2024-03-25T00:09:57;6.72;;;2.53;;
75993;SDS011;64680;53.800;9.988;2024-03-25T00:12:25;7.57;;;2.22;;
75993;SDS011;64680;53.800;9.988;2024-03-25T00:14:51;8.43;;;2.20;;
75993;SDS011;64680;53.800;9.988;2024-03-25T00:17:16;7.68;;;2.03;;
75993;SDS011;64680;53.800;9.988;2024-03-25T00:19:42;5.28;;;2.08;;
75993;SDS011;64680;53.800;9.988;2024-03-25T00:22:08;7.35;;;1.88;;
75993;SDS011;64680;53.800;9.988;2024-03-25T00:24:33;5.63;;;2.20;;
75993;SDS011;64680;53.800;9.988;2024-03-25T00:26:59;7.88;;;2.28;;
75993;SDS011;64680;53.800;9.988;2024-03-25T00:29:25;8.88;;;1.40;;
75993;SDS011;64680;53.800;9.988;2024-03-25T00:31:50;4.68;;;1.83;;
75993;SDS011;64680;53.800;9.988;2024-03-25T00:34:16;6.85;;;2.20;;
75993;SDS011;64680;53.800;9.988;2024-03-25T00:36:42;9.02;;;2.83;;
75993;SDS011;64680;53.800;9.988;2024-03-25T00:39:08;10.70;;;2.78;;
75993;SDS011;64680;53.800;9.988;2024-03-25T00:41:33;8.48;;;2.75;;
75993;SDS011;64680;53.800;9.988;2024-03-25T00:44:09;8.35;;;2.50;;
75993;SDS011;64680;53.800;9.988;2024-03-25T00:46:35;7.30;;;2.50;;
75993;SDS011;64680;53.800;9.988;2024-03-25T00:49:01;5.85;;;2.08;;
75993;SDS011;64680;53.800;9.988;2024-03-25T00:51:26;9.48;;;2.72;;
75993;SDS011;64680;53.800;9.988;2024-03-25T00:53:52;6.45;;;2.38;;
75993;SDS011;64680;53.800;9.988;2024-03-25T00:56:17;5.85;;;2.45;;
75993;SDS011;64680;53.800;9.988;2024-03-25T00:58:43;8.35;;;1.77;;
75993;SDS011;64680;53.800;9.988;2024-03-25T01:01:11;11.70;;;2.95;;
75993;SDS011;64680;53.800;9.988;2024-03-25T01:03:39;6.95;;;2.83;;
75993;SDS011;64680;53.800;9.988;2024-03-25T01:06:05;8.38;;;2.50;;
75993;SDS011;64680;53.800;9.988;2024-03-25T01:08:30;3.40;;;2.38;;
75993;SDS011;64680;53.800;9.988;2024-03-25T01:10:56;7.47;;;2.60;;
75993;SDS011;64680;53.800;9.988;2024-03-25T01:13:22;6.25;;;2.40;;
75993;SDS011;64680;53.800;9.988;2024-03-25T01:15:50;5.80;;;1.75;;
75993;SDS011;64680;53.800;9.988;2024-03-25T01:18:17;9.85;;;1.90;;
75993;SDS011;64680;53.800;9.988;2024-03-25T01:20:43;5.15;;;2.47;;
75993;SDS011;64680;53.800;9.988;2024-03-25T01:23:09;7.68;;;2.63;;
75993;SDS011;64680;53.800;9.988;2024-03-25T01:25:35;10.90;;;3.22;;
75993;SDS011;64680;53.800;9.988;2024-03-25T01:28:19;7.45;;;2.78;;
75993;SDS011;64680;53.800;9.988;2024-03-25T01:30:44;6.53;;;1.90;;
75993;SDS011;64680;53.800;9.988;2024-03-25T01:33:10;7.15;;;2.63;;
75993;SDS011;64680;53.800;9.988;2024-03-25T01:35:36;7.60;;;2.67;;
75993;SDS011;64680;53.800;9.988;2024-03-25T01:38:01;7.88;;;2.38;;
75993;SDS011;64680;53.800;9.988;2024-03-25T01:40:28;5.78;;;2.72;;
75993;SDS011;64680;53.800;9.988;2024-03-25T01:43:00;5.93;;;2.30;;
75993;SDS011;64680;53.800;9.988;2024-03-25T01:45:30;11.85;;;2.63;;
75993;SDS011;64680;53.800;9.988;2024-03-25T01:47:58;7.13;;;2.33;;
75993;SDS011;64680;53.800;9.988;2024-03-25T01:50:26;7.47;;;2.28;;
75993;SDS011;64680;53.800;9.988;2024-03-25T01:52:54;5.47;;;2.67;;
75993;SDS011;64680;53.800;9.988;2024-03-25T01:55:21;7.97;;;2.67;;
75993;SDS011;64680;53.800;9.988;2024-03-25T01:57:49;6.45;;;2.20;;
75993;SDS011;64680;53.800;9.988;2024-03-25T02:00:15;6.70;;;2.55;;
75993;SDS011;64680;53.800;9.988;2024-03-25T02:02:44;3.65;;;2.17;;
75993;SDS011;64680;53.800;9.988;2024-03-25T02:05:11;9.50;;;2.33;;
75993;SDS011;64680;53.800;9.988;2024-03-25T02:07:41;6.18;;;3.17;;
75993;SDS011;64680;53.800;9.988;2024-03-25T02:10:08;6.10;;;2.45;;
75993;SDS011;64680;53.800;9.988;2024-03-25T02:12:44;9.13;;;2.47;;
75993;SDS011;64680;53.800;9.988;2024-03-25T02:15:11;5.55;;;2.17;;
75993;SDS011;64680;53.800;9.988;2024-03-25T02:17:39;8.02;;;2.53;;
75993;SDS011;64680;53.800;9.988;2024-03-25T02:20:06;7.43;;;2.53;;
75993;SDS011;64680;53.800;9.988;2024-03-25T02:22:40;9.73;;;2.80;;
75993;SDS011;64680;53.800;9.988;2024-03-25T02:25:07;7.38;;;3.33;;
75993;SDS011;64680;53.800;9.988;2024-03-25T02:27:37;8.65;;;2.53;;
75993;SDS011;64680;53.800;9.988;2024-03-25T02:32:34;7.95;;;2.83;;
75993;SDS011;64680;53.800;9.988;2024-03-25T02:35:00;7.75;;;2.88;;
75993;SDS011;64680;53.800;9.988;2024-03-25T02:37:31;5.85;;;2.25;;
75993;SDS011;64680;53.800;9.988;2024-03-25T02:39:58;5.38;;;2.30;;
75993;SDS011;64680;53.800;9.988;2024-03-25T02:42:26;5.32;;;2.13;;
75993;SDS011;64680;53.800;9.988;2024-03-25T02:44:52;6.05;;;2.55;;
75993;SDS011;64680;53.800;9.988;2024-03-25T02:47:19;6.45;;;2.83;;
75993;SDS011;64680;53.800;9.988;2024-03-25T02:49:45;9.43;;;2.83;;
75993;SDS011;64680;53.800;9.988;2024-03-25T02:52:11;8.63;;;2.63;;
75993;SDS011;64680;53.800;9.988;2024-03-25T02:54:36;9.73;;;2.30;;
75993;SDS011;64680;53.800;9.988;2024-03-25T02:57:02;5.97;;;2.40;;
75993;SDS011;64680;53.800;9.988;2024-03-25T02:59:27;6.75;;;1.42;;
75993;SDS011;64680;53.800;9.988;2024-03-25T03:01:53;5.65;;;2.50;;
75993;SDS011;64680;53.800;9.988;2024-03-25T03:04:19;6.05;;;1.83;;
75993;SDS011;64680;53.800;9.988;2024-03-25T03:06:44;5.95;;;1.95;;
75993;SDS011;64680;53.800;9.988;2024-03-25T03:09:10;4.15;;;2.13;;
75993;SDS011;64680;53.800;9.988;2024-03-25T03:11:35;6.03;;;2.33;;
75993;SDS011;64680;53.800;9.988;2024-03-25T03:14:01;6.90;;;1.80;;
75993;SDS011;64680;53.800;9.988;2024-03-25T03:16:26;5.18;;;2.10;;
75993;SDS011;64680;53.800;9.988;2024-03-25T03:18:52;3.97;;;1.92;;
75993;SDS011;64680;53.800;9.988;2024-03-25T03:21:17;4.55;;;1.83;;
75993;SDS011;64680;53.800;9.988;2024-03-25T03:23:43;6.80;;;1.50;;
75993;SDS011;64680;53.800;9.988;2024-03-25T03:26:08;4.75;;;1.70;;
75993;SDS011;64680;53.800;9.988;2024-03-25T03:28:34;8.88;;;1.25;;
75993;SDS011;64680;53.800;9.988;2024-03-25T03:31:00;8.55;;;1.50;;
75993;SDS011;64680;53.800;9.988;2024-03-25T03:33:26;6.03;;;1.88;;
75993;SDS011;64680;53.800;9.988;2024-03-25T03:35:52;7.82;;;1.75;;
75993;SDS011;64680;53.800;9.988;2024-03-25T03:38:17;5.90;;;1.45;;
75993;SDS011;64680;53.800;9.988;2024-03-25T03:40:44;3.10;;;1.80;;
75993;SDS011;64680;53.800;9.988;2024-03-25T03:43:20;5.22;;;2.47;;
75993;SDS011;64680;53.800;9.988;2024-03-25T03:45:46;3.97;;;1.60;;
75993;SDS011;64680;53.800;9.988;2024-03-25T03:48:14;3.67;;;1.33;;
75993;SDS011;64680;53.800;9.988;2024-03-25T03:50:39;5.00;;;1.55;;
75993;SDS011;64680;53.800;9.988;2024-03-25T03:53:05;5.35;;;1.80;;
75993;SDS011;64680;53.800;9.988;2024-03-25T03:55:33;8.98;;;1.65;;
75993;SDS011;64680;53.800;9.988;2024-03-25T03:58:01;5.82;;;1.90;;
75993;SDS011;64680;53.800;9.988;2024-03-25T04:00:27;4.43;;;1.65;;
75993;SDS011;64680;53.800;9.988;2024-03-25T04:02:53;4.53;;;1.08;;
75993;SDS011;64680;53.800;9.988;2024-03-25T04:05:19;4.90;;;2.30;;
75993;SDS011;64680;53.800;9.988;2024-03-25T04:07:44;9.82;;;1.73;;
75993;SDS011;64680;53.800;9.988;2024-03-25T04:10:10;4.50;;;1.77;;
75993;SDS011;64680;53.800;9.988;2024-03-25T04:12:36;7.60;;;0.85;;
75993;SDS011;64680;53.800;9.988;2024-03-25T04:15:02;3.97;;;1.63;;
75993;SDS011;64680;53.800;9.988;2024-03-25T04:17:28;6.15;;;1.50;;
75993;SDS011;64680;53.800;9.988;2024-03-25T04:19:54;4.18;;;1.58;;
75993;SDS011;64680;53.800;9.988;2024-03-25T04:22:19;3.92;;;1.40;;
75993;SDS011;64680;53.800;9.988;2024-03-25T04:24:45;4.53;;;1.65;;
75993;SDS011;64680;53.800;9.988;2024-03-25T04:27:11;6.57;;;1.33;;
75993;SDS011;64680;53.800;9.988;2024-03-25T04:29:36;5.55;;;1.35;;
75993;SDS011;64680;53.800;9.988;2024-03-25T04:32:02;5.07;;;1.45;;
75993;SDS011;64680;53.800;9.988;2024-03-25T04:34:30;5.28;;;1.63;;
75993;SDS011;64680;53.800;9.988;2024-03-25T04:36:57;5.97;;;1.65;;
75993;SDS011;64680;53.800;9.988;2024-03-25T04:39:23;5.70;;;1.75;;
75993;SDS011;64680;53.800;9.988;2024-03-25T04:41:49;7.55;;;1.80;;
75993;SDS011;64680;53.800;9.988;2024-03-25T04:44:14;6.03;;;2.05;;
75993;SDS011;64680;53.800;9.988;2024-03-25T04:46:40;7.43;;;2.28;;
75993;SDS011;64680;53.800;9.988;2024-03-25T04:49:05;3.00;;;1.80;;
75993;SDS011;64680;53.800;9.988;2024-03-25T04:51:31;6.25;;;1.42;;
75993;SDS011;64680;53.800;9.988;2024-03-25T04:53:57;3.63;;;1.45;;
75993;SDS011;64680;53.800;9.988;2024-03-25T04:56:23;3.95;;;1.65;;
75993;SDS011;64680;53.800;9.988;2024-03-25T04:58:48;3.42;;;1.65;;
75993;SDS011;64680;53.800;9.988;2024-03-25T05:01:14;4.90;;;1.25;;
75993;SDS011;64680;53.800;9.988;2024-03-25T05:03:40;4.28;;;1.15;;
75993;SDS011;64680;53.800;9.988;2024-03-25T05:06:05;3.80;;;1.38;;
75993;SDS011;64680;53.800;9.988;2024-03-25T05:08:34;2.58;;;1.30;;
75993;SDS011;64680;53.800;9.988;2024-03-25T05:10:59;1.92;;;1.35;;
75993;SDS011;64680;53.800;9.988;2024-03-25T05:13:25;3.10;;;1.50;;
75993;SDS011;64680;53.800;9.988;2024-03-25T05:15:51;2.53;;;1.20;;
75993;SDS011;64680;53.800;9.988;2024-03-25T05:18:17;3.33;;;1.58;;
75993;SDS011;64680;53.800;9.988;2024-03-25T05:20:43;1.98;;;1.20;;
75993;SDS011;64680;53.800;9.988;2024-03-25T05:23:09;3.83;;;1.33;;
75993;SDS011;64680;53.800;9.988;2024-03-25T05:25:35;1.75;;;1.10;;
75993;SDS011;64680;53.800;9.988;2024-03-25T05:28:01;2.83;;;1.10;;
75993;SDS011;64680;53.800;9.988;2024-03-25T05:30:26;2.50;;;1.08;;
75993;SDS011;64680;53.800;9.988;2024-03-25T05:32:52;1.70;;;1.27;;
75993;SDS011;64680;53.800;9.988;2024-03-25T05:35:17;3.20;;;1.27;;
75993;SDS011;64680;53.800;9.988;2024-03-25T05:37:43;1.58;;;0.93;;
75993;SDS011;64680;53.800;9.988;2024-03-25T05:40:09;2.55;;;1.38;;
75993;SDS011;64680;53.800;9.988;2024-03-25T05:42:36;1.88;;;0.50;;
75993;SDS011;64680;53.800;9.988;2024-03-25T05:45:02;2.22;;;0.90;;
75993;SDS011;64680;53.800;9.988;2024-03-25T05:47:29;1.35;;;1.02;;
75993;SDS011;64680;53.800;9.988;2024-03-25T05:49:54;3.72;;;0.88;;
75993;SDS011;64680;53.800;9.988;2024-03-25T05:52:20;1.52;;;0.95;;
75993;SDS011;64680;53.800;9.988;2024-03-25T05:54:49;4.13;;;1.35;;
75993;SDS011;64680;53.800;9.988;2024-03-25T05:57:14;2.35;;;1.73;;
75993;SDS011;64680;53.800;9.988;2024-03-25T05:59:40;3.58;;;1.63;;
75993;SDS011;64680;53.800;9.988;2024-03-25T06:04:35;2.05;;;1.20;;
75993;SDS011;64680;53.800;9.988;2024-03-25T06:07:00;6.90;;;1.27;;
75993;SDS011;64680;53.800;9.988;2024-03-25T06:09:38;3.40;;;0.80;;
75993;SDS011;64680;53.800;9.988;2024-03-25T06:12:09;3.10;;;1.63;;
75993;SDS011;64680;53.800;9.988;2024-03-25T06:14:35;4.47;;;1.40;;
75993;SDS011;64680;53.800;9.988;2024-03-25T06:17:06;1.58;;;1.30;;
75993;SDS011;64680;53.800;9.988;2024-03-25T06:19:44;3.38;;;1.38;;
75993;SDS011;64680;53.800;9.988;2024-03-25T06:22:20;2.15;;;1.52;;
75993;SDS011;64680;53.800;9.988;2024-03-25T06:24:54;3.15;;;1.42;;
75993;SDS011;64680;53.800;9.988;2024-03-25T06:27:20;3.22;;;1.40;;
75993;SDS011;64680;53.800;9.988;2024-03-25T06:29:46;4.43;;;1.85;;
75993;SDS011;64680;53.800;9.988;2024-03-25T06:32:12;2.15;;;1.13;;
75993;SDS011;64680;53.800;9.988;2024-03-25T06:34:56;3.35;;;1.60;;
75993;SDS011;64680;53.800;9.988;2024-03-25T06:37:25;2.40;;;1.40;;
75993;SDS011;64680;53.800;9.988;2024-03-25T06:39:51;2.28;;;1.48;;
75993;SDS011;64680;53.800;9.988;2024-03-25T06:42:20;1.70;;;1.23;;
75993;SDS011;64680;53.800;9.988;2024-03-25T06:44:46;5.88;;;0.93;;
75993;SDS011;64680;53.800;9.988;2024-03-25T06:47:17;1.95;;;1.33;;
75993;SDS011;64680;53.800;9.988;2024-03-25T06:49:43;2.95;;;0.90;;
75993;SDS011;64680;53.800;9.988;2024-03-25T06:52:11;1.90;;;1.13;;
75993;SDS011;64680;53.800;9.988;2024-03-25T06:54:36;2.17;;;1.27;;
75993;SDS011;64680;53.800;9.988;2024-03-25T06:57:04;2.17;;;1.40;;
75993;SDS011;64680;53.800;9.988;2024-03-25T06:59:30;2.13;;;1.55;;
75993;SDS011;64680;53.800;9.988;2024-03-25T07:02:01;4.03;;;1.45;;
75993;SDS011;64680;53.800;9.988;2024-03-25T07:04:26;4.13;;;1.67;;
75993;SDS011;64680;53.800;9.988;2024-03-25T07:06:52;2.05;;;1.75;;
75993;SDS011;64680;53.800;9.988;2024-03-25T07:09:17;4.57;;;2.72;;
75993;SDS011;64680;53.800;9.988;2024-03-25T07:11:43;4.07;;;1.77;;
75993;SDS011;64680;53.800;9.988;2024-03-25T07:14:11;3.25;;;1.77;;
75993;SDS011;64680;53.800;9.988;2024-03-25T07:16:37;3.45;;;1.50;;
75993;SDS011;64680;53.800;9.988;2024-03-25T07:19:03;2.20;;;1.60;;
75993;SDS011;64680;53.800;9.988;2024-03-25T07:21:28;1.95;;;1.05;;
75993;SDS011;64680;53.800;9.988;2024-03-25T07:23:54;3.75;;;1.85;;
75993;SDS011;64680;53.800;9.988;2024-03-25T07:26:19;4.53;;;2.13;;
75993;SDS011;64680;53.800;9.988;2024-03-25T07:28:45;3.33;;;1.95;;
75993;SDS011;64680;53.800;9.988;2024-03-25T07:31:10;5.43;;;1.95;;
75993;SDS011;64680;53.800;9.988;2024-03-25T07:33:36;5.75;;;1.90;;
75993;SDS011;64680;53.800;9.988;2024-03-25T07:36:01;3.95;;;1.83;;
75993;SDS011;64680;53.800;9.988;2024-03-25T07:38:27;2.72;;;1.73;;
75993;SDS011;64680;53.800;9.988;2024-03-25T07:40:53;8.10;;;2.25;;
75993;SDS011;64680;53.800;9.988;2024-03-25T07:43:18;2.92;;;1.88;;
75993;SDS011;64680;53.800;9.988;2024-03-25T07:45:44;4.28;;;1.48;;
75993;SDS011;64680;53.800;9.988;2024-03-25T07:48:09;2.58;;;1.63;;
75993;SDS011;64680;53.800;9.988;2024-03-25T07:50:35;4.53;;;1.77;;
75993;SDS011;64680;53.800;9.988;2024-03-25T07:53:01;6.28;;;2.03;;
75993;SDS011;64680;53.800;9.988;2024-03-25T07:55:27;5.00;;;2.08;;
75993;SDS011;64680;53.800;9.988;2024-03-25T07:57:52;4.78;;;2.00;;
75993;SDS011;64680;53.800;9.988;2024-03-25T08:00:18;3.83;;;1.95;;
75993;SDS011;64680;53.800;9.988;2024-03-25T08:02:43;3.78;;;2.00;;
75993;SDS011;64680;53.800;9.988;2024-03-25T08:05:09;6.05;;;2.13;;
75993;SDS011;64680;53.800;9.988;2024-03-25T08:07:34;6.57;;;2.78;;
75993;SDS011;64680;53.800;9.988;2024-03-25T08:10:00;4.07;;;1.75;;
75993;SDS011;64680;53.800;9.988;2024-03-25T08:12:26;5.88;;;2.10;;
75993;SDS011;64680;53.800;9.988;2024-03-25T08:14:51;4.55;;;1.52;;
75993;SDS011;64680;53.800;9.988;2024-03-25T08:17:17;4.53;;;1.65;;
75993;SDS011;64680;53.800;9.988;2024-03-25T08:19:42;3.08;;;1.65;;
75993;SDS011;64680;53.800;9.988;2024-03-25T08:22:08;4.70;;;1.63;;
75993;SDS011;64680;53.800;9.988;2024-03-25T08:24:33;4.65;;;1.48;;
75993;SDS011;64680;53.800;9.988;2024-03-25T08:26:59;4.07;;;1.60;;
75993;SDS011;64680;53.800;9.988;2024-03-25T08:29:25;6.72;;;1.73;;
75993;SDS011;64680;53.800;9.988;2024-03-25T08:31:50;4.15;;;1.52;;
75993;SDS011;64680;53.800;9.988;2024-03-25T08:34:16;3.05;;;1.13;;
75993;SDS011;64680;53.800;9.988;2024-03-25T08:36:41;3.33;;;1.23;;
75993;SDS011;64680;53.800;9.988;2024-03-25T08:39:07;6.95;;;1.90;;
75993;SDS011;64680;53.800;9.988;2024-03-25T08:41:32;6.07;;;1.92;;
75993;SDS011;64680;53.800;9.988;2024-03-25T08:43:58;4.30;;;0.80;;
75993;SDS011;64680;53.800;9.988;2024-03-25T08:46:24;4.22;;;0.63;;
75993;SDS011;64680;53.800;9.988;2024-03-25T08:48:49;4.22;;;1.10;;
75993;SDS011;64680;53.800;9.988;2024-03-25T08:51:15;3.65;;;1.30;;
75993;SDS011;64680;53.800;9.988;2024-03-25T08:53:40;5.00;;;1.25;;
75993;SDS011;64680;53.800;9.988;2024-03-25T08:56:06;8.05;;;1.70;;
75993;SDS011;64680;53.800;9.988;2024-03-25T08:58:31;4.97;;;1.40;;
75993;SDS011;64680;53.800;9.988;2024-03-25T09:00:57;4.97;;;1.25;;
75993;SDS011;64680;53.800;9.988;2024-03-25T09:03:23;5.72;;;1.88;;
75993;SDS011;64680;53.800;9.988;2024-03-25T09:05:48;8.30;;;1.80;;
75993;SDS011;64680;53.800;9.988;2024-03-25T09:08:14;4.43;;;1.17;;
75993;SDS011;64680;53.800;9.988;2024-03-25T09:10:39;7.15;;;1.65;;
75993;SDS011;64680;53.800;9.988;2024-03-25T09:13:27;6.45;;;1.73;;
75993;SDS011;64680;53.800;9.988;2024-03-25T09:15:53;3.83;;;1.70;;
75993;SDS011;64680;53.800;9.988;2024-03-25T09:18:19;3.78;;;1.63;;
75993;SDS011;64680;53.800;9.988;2024-03-25T09:20:45;2.97;;;1.25;;
75993;SDS011;64680;53.800;9.988;2024-03-25T09:23:10;5.82;;;1.40;;
75993;SDS011;64680;53.800;9.988;2024-03-25T09:25:36;5.15;;;1.42;;
75993;SDS011;64680;53.800;9.988;2024-03-25T09:28:01;5.47;;;0.85;;
75993;SDS011;64680;53.800;9.988;2024-03-25T09:30:27;6.95;;;1.65;;
75993;SDS011;64680;53.800;9.988;2024-03-25T09:32:53;5.90;;;1.65;;
75993;SDS011;64680;53.800;9.988;2024-03-25T09:35:19;2.97;;;1.33;;
75993;SDS011;64680;53.800;9.988;2024-03-25T09:37:45;2.22;;;0.98;;
75993;SDS011;64680;53.800;9.988;2024-03-25T09:40:11;5.10;;;1.50;;
75993;SDS011;64680;53.800;9.988;2024-03-25T09:42:49;3.75;;;1.10;;
75993;SDS011;64680;53.800;9.988;2024-03-25T09:45:20;4.97;;;1.15;;
75993;SDS011;64680;53.800;9.988;2024-03-25T09:47:53;3.08;;;1.15;;
75993;SDS011;64680;53.800;9.988;2024-03-25T09:50:20;3.97;;;1.45;;
75993;SDS011;64680;53.800;9.988;2024-03-25T09:52:46;4.95;;;1.65;;
75993;SDS011;64680;53.800;9.988;2024-03-25T09:55:13;4.05;;;1.40;;
75993;SDS011;64680;53.800;9.988;2024-03-25T09:57:38;6.10;;;2.08;;
75993;SDS011;64680;53.800;9.988;2024-03-25T10:00:06;4.05;;;1.33;;
75993;SDS011;64680;53.800;9.988;2024-03-25T10:02:34;5.95;;;1.60;;
75993;SDS011;64680;53.800;9.988;2024-03-25T10:05:02;10.80;;;1.70;;
75993;SDS011;64680;53.800;9.988;2024-03-25T10:07:28;4.63;;;1.45;;
75993;SDS011;64680;53.800;9.988;2024-03-25T10:09:54;4.88;;;0.65;;
75993;SDS011;64680;53.800;9.988;2024-03-25T10:12:19;7.03;;;1.70;;
75993;SDS011;64680;53.800;9.988;2024-03-25T10:14:45;5.88;;;1.83;;
75993;SDS011;64680;53.800;9.988;2024-03-25T10:17:10;6.95;;;1.67;;
75993;SDS011;64680;53.800;9.988;2024-03-25T10:19:36;6.22;;;1.27;;
75993;SDS011;64680;53.800;9.988;2024-03-25T10:22:08;6.03;;;1.10;;
75993;SDS011;64680;53.800;9.988;2024-03-25T10:24:38;4.95;;;1.42;;
75993;SDS011;64680;53.800;9.988;2024-03-25T10:27:17;3.45;;;1.20;;
75993;SDS011;64680;53.800;9.988;2024-03-25T10:29:45;7.82;;;1.77;;
75993;SDS011;64680;53.800;9.988;2024-03-25T10:32:12;4.97;;;1.50;;
75993;SDS011;64680;53.800;9.988;2024-03-25T10:34:38;7.07;;;1.55;;
75993;SDS011;64680;53.800;9.988;2024-03-25T10:37:04;8.98;;;1.63;;
75993;SDS011;64680;53.800;9.988;2024-03-25T10:39:33;7.85;;;1.50;;
75993;SDS011;64680;53.800;9.988;2024-03-25T10:42:04;9.75;;;2.33;;
75993;SDS011;64680;53.800;9.988;2024-03-25T10:44:31;6.95;;;1.77;;
75993;SDS011;64680;53.800;9.988;2024-03-25T10:47:01;6.88;;;1.25;;
75993;SDS011;64680;53.800;9.988;2024-03-25T10:52:15;5.30;;;1.67;;
75993;SDS011;64680;53.800;9.988;2024-03-25T10:54:43;5.60;;;1.00;;
75993;SDS011;64680;53.800;9.988;2024-03-25T10:57:12;5.38;;;1.23;;
75993;SDS011;64680;53.800;9.988;2024-03-25T10:59:38;4.45;;;0.90;;
75993;SDS011;64680;53.800;9.988;2024-03-25T11:02:06;6.60;;;1.77;;
75993;SDS011;64680;53.800;9.988;2024-03-25T11:04:32;7.10;;;1.50;;
75993;SDS011;64680;53.800;9.988;2024-03-25T11:09:38;6.50;;;1.63;;
75993;SDS011;64680;53.800;9.988;2024-03-25T11:12:04;4.78;;;1.00;;
75993;SDS011;64680;53.800;9.988;2024-03-25T11:14:30;3.00;;;1.05;;
75993;SDS011;64680;53.800;9.988;2024-03-25T11:17:00;2.95;;;0.93;;
75993;SDS011;64680;53.800;9.988;2024-03-25T11:19:26;2.90;;;1.05;;
75993;SDS011;64680;53.800;9.988;2024-03-25T11:21:53;2.90;;;1.00;;
75993;SDS011;64680;53.800;9.988;2024-03-25T11:24:26;2.55;;;1.13;;
75993;SDS011;64680;53.800;9.988;2024-03-25T11:26:53;5.10;;;0.95;;
75993;SDS011;64680;53.800;9.988;2024-03-25T11:29:19;3.00;;;0.70;;
75993;SDS011;64680;53.800;9.988;2024-03-25T11:31:45;4.38;;;1.10;;
75993;SDS011;64680;53.800;9.988;2024-03-25T11:34:11;3.95;;;0.85;;
75993;SDS011;64680;53.800;9.988;2024-03-25T11:36:37;2.95;;;0.70;;
75993;SDS011;64680;53.800;9.988;2024-03-25T11:39:03;1.45;;;0.63;;
75993;SDS011;64680;53.800;9.988;2024-03-25T11:41:33;2.92;;;1.33;;
75993;SDS011;64680;53.800;9.988;2024-03-25T11:43:59;5.65;;;1.08;;
75993;SDS011;64680;53.800;9.988;2024-03-25T11:46:25;3.50;;;1.00;;
75993;SDS011;64680;53.800;9.988;2024-03-25T11:48:51;5.00;;;1.15;;
75993;SDS011;64680;53.800;9.988;2024-03-25T11:51:17;3.50;;;0.93;;
75993;SDS011;64680;53.800;9.988;2024-03-25T11:53:44;2.85;;;0.52;;
75993;SDS011;64680;53.800;9.988;2024-03-25T11:56:10;5.03;;;1.27;;
75993;SDS011;64680;53.800;9.988;2024-03-25T11:58:36;3.90;;;1.42;;
75993;SDS011;64680;53.800;9.988;2024-03-25T12:01:05;4.18;;;1.13;;
75993;SDS011;64680;53.800;9.988;2024-03-25T12:03:33;5.10;;;1.42;;
75993;SDS011;64680;53.800;9.988;2024-03-25T12:05:59;4.22;;;1.02;;
75993;SDS011;64680;53.800;9.988;2024-03-25T12:08:24;3.15;;;1.13;;
75993;SDS011;64680;53.800;9.988;2024-03-25T12:10:51;2.97;;;1.10;;
75993;SDS011;64680;53.800;9.988;2024-03-25T12:13:35;3.05;;;1.20;;
75993;SDS011;64680;53.800;9.988;2024-03-25T12:16:06;4.15;;;1.17;;
75993;SDS011;64680;53.800;9.988;2024-03-25T12:18:33;4.95;;;1.17;;
75993;SDS011;64680;53.800;9.988;2024-03-25T12:23:30;3.72;;;1.67;;
75993;SDS011;64680;53.800;9.988;2024-03-25T12:25:58;6.38;;;1.33;;
75993;SDS011;64680;53.800;9.988;2024-03-25T12:28:28;4.82;;;1.25;;
75993;SDS011;64680;53.800;9.988;2024-03-25T12:30:55;6.80;;;1.02;;
75993;SDS011;64680;53.800;9.988;2024-03-25T12:33:22;3.72;;;0.88;;
75993;SDS011;64680;53.800;9.988;2024-03-25T12:35:48;3.05;;;1.08;;
75993;SDS011;64680;53.800;9.988;2024-03-25T12:38:30;2.72;;;0.85;;
75993;SDS011;64680;53.800;9.988;2024-03-25T12:41:03;5.78;;;1.27;;
75993;SDS011;64680;53.800;9.988;2024-03-25T12:43:33;4.38;;;1.08;;
75993;SDS011;64680;53.800;9.988;2024-03-25T12:46:03;4.38;;;1.23;;
75993;SDS011;64680;53.800;9.988;2024-03-25T12:48:29;4.68;;;1.00;;
75993;SDS011;64680;53.800;9.988;2024-03-25T12:50:55;4.40;;;1.15;;
75993;SDS011;64680;53.800;9.988;2024-03-25T12:53:20;4.68;;;1.20;;
75993;SDS011;64680;53.800;9.988;2024-03-25T12:55:46;5.00;;;1.25;;
75993;SDS011;64680;53.800;9.988;2024-03-25T12:58:12;3.80;;;0.85;;
75993;SDS011;64680;53.800;9.988;2024-03-25T13:00:38;6.55;;;1.10;;
75993;SDS011;64680;53.800;9.988;2024-03-25T13:03:07;4.10;;;1.00;;
75993;SDS011;64680;53.800;9.988;2024-03-25T13:05:33;3.05;;;1.05;;
75993;SDS011;64680;53.800;9.988;2024-03-25T13:08:00;2.83;;;0.90;;
75993;SDS011;64680;53.800;9.988;2024-03-25T13:10:26;6.15;;;1.10;;
75993;SDS011;64680;53.800;9.988;2024-03-25T13:12:52;4.25;;;1.02;;
75993;SDS011;64680;53.800;9.988;2024-03-25T13:15:18;3.50;;;0.80;;
75993;SDS011;64680;53.800;9.988;2024-03-25T13:17:43;2.05;;;0.77;;
75993;SDS011;64680;53.800;9.988;2024-03-25T13:20:09;2.05;;;1.02;;
75993;SDS011;64680;53.800;9.988;2024-03-25T13:22:35;3.20;;;0.85;;
75993;SDS011;64680;53.800;9.988;2024-03-25T13:25:01;3.83;;;0.90;;
75993;SDS011;64680;53.800;9.988;2024-03-25T13:27:26;2.53;;;1.20;;
75993;SDS011;64680;53.800;9.988;2024-03-25T13:29:52;3.42;;;0.90;;
75993;SDS011;64680;53.800;9.988;2024-03-25T13:32:18;3.22;;;0.80;;
75993;SDS011;64680;53.800;9.988;2024-03-25T13:34:44;5.65;;;1.25;;
75993;SDS011;64680;53.800;9.988;2024-03-25T13:37:09;2.38;;;0.90;;
75993;SDS011;64680;53.800;9.988;2024-03-25T13:39:36;6.60;;;1.58;;
75993;SDS011;64680;53.800;9.988;2024-03-25T13:42:01;4.47;;;1.13;;
75993;SDS011;64680;53.800;9.988;2024-03-25T13:44:27;6.00;;;1.20;;
75993;SDS011;64680;53.800;9.988;2024-03-25T13:46:53;3.25;;;1.48;;
75993;SDS011;64680;53.800;9.988;2024-03-25T13:49:19;2.75;;;1.10;;
75993;SDS011;64680;53.800;9.988;2024-03-25T13:51:45;3.35;;;1.45;;
75993;SDS011;64680;53.800;9.988;2024-03-25T13:54:11;2.20;;;0.50;;
75993;SDS011;64680;53.800;9.988;2024-03-25T13:56:36;3.95;;;1.10;;
75993;SDS011;64680;53.800;9.988;2024-03-25T13:59:02;3.35;;;0.88;;
75993;SDS011;64680;53.800;9.988;2024-03-25T14:01:28;5.03;;;0.90;;
75993;SDS011;64680;53.800;9.988;2024-03-25T14:03:54;3.95;;;0.98;;
75993;SDS011;64680;53.800;9.988;2024-03-25T14:06:19;4.35;;;1.13;;
75993;SDS011;64680;53.800;9.988;2024-03-25T14:08:45;1.75;;;0.65;;
75993;SDS011;64680;53.800;9.988;2024-03-25T14:11:10;3.58;;;0.85;;
75993;SDS011;64680;53.800;9.988;2024-03-25T14:13:36;1.88;;;1.13;;
75993;SDS011;64680;53.800;9.988;2024-03-25T14:16:02;3.78;;;0.60;;
75993;SDS011;64680;53.800;9.988;2024-03-25T14:18:27;4.60;;;1.10;;
75993;SDS011;64680;53.800;9.988;2024-03-25T14:20:53;4.00;;;0.73;;
75993;SDS011;64680;53.800;9.988;2024-03-25T14:23:18;2.83;;;0.80;;
75993;SDS011;64680;53.800;9.988;2024-03-25T14:25:44;5.22;;;0.77;;
75993;SDS011;64680;53.800;9.988;2024-03-25T14:28:10;2.88;;;0.80;;
75993;SDS011;64680;53.800;9.988;2024-03-25T14:30:35;2.38;;;0.90;;
75993;SDS011;64680;53.800;9.988;2024-03-25T14:33:01;3.63;;;0.82;;
75993;SDS011;64680;53.800;9.988;2024-03-25T14:35:27;2.30;;;0.75;;
75993;SDS011;64680;53.800;9.988;2024-03-25T14:37:52;5.05;;;0.40;;
75993;SDS011;64680;53.800;9.988;2024-03-25T14:40:19;2.13;;;0.82;;
75993;SDS011;64680;53.800;9.988;2024-03-25T14:42:44;2.42;;;0.85;;
75993;SDS011;64680;53.800;9.988;2024-03-25T14:45:10;2.30;;;0.25;;
75993;SDS011;64680;53.800;9.988;2024-03-25T14:47:36;4.18;;;1.00;;
75993;SDS011;64680;53.800;9.988;2024-03-25T14:50:01;4.70;;;0.90;;
75993;SDS011;64680;53.800;9.988;2024-03-25T14:52:30;2.70;;;0.80;;
75993;SDS011;64680;53.800;9.988;2024-03-25T14:54:55;3.25;;;0.88;;
75993;SDS011;64680;53.800;9.988;2024-03-25T14:57:21;2.05;;;0.65;;